createdAt,value
2019-04-25T00:01:25.596Z,54.20
2019-04-25T00:03:55.809Z,54.40
2019-04-25T00:06:27.647Z,54.90
2019-04-25T00:08:57.996Z,55.10
2019-04-25T00:11:28.452Z,55.70
2019-04-25T00:13:58.671Z,55.80
2019-04-25T00:16:31.171Z,55.90
2019-04-25T00:19:01.885Z,56.00
2019-04-25T00:21:46.556Z,56.20
2019-04-25T00:24:21.892Z,56.40
2019-04-25T00:26:53.635Z,56.60
2019-04-25T00:29:23.805Z,56.70
2019-04-25T00:31:54.150Z,57.00
2019-04-25T00:34:24.506Z,57.00
2019-04-25T00:36:54.868Z,57.30
2019-04-25T00:39:25.444Z,57.40
2019-04-25T00:41:56.243Z,57.50
2019-04-25T00:44:26.484Z,57.50
2019-04-25T00:46:56.899Z,58.40
2019-04-25T00:49:27.225Z,58.00
2019-04-25T00:51:57.965Z,58.30
2019-04-25T00:54:28.176Z,58.40
2019-04-25T00:56:58.493Z,58.40
2019-04-25T00:59:45.562Z,58.70
2019-04-25T01:02:29.149Z,58.80
2019-04-25T01:04:59.549Z,59.00
2019-04-25T01:07:29.777Z,59.10
2019-04-25T01:09:59.975Z,59.30
2019-04-25T01:12:31.381Z,59.50
2019-04-25T01:15:01.890Z,59.70
2019-04-25T01:17:32.657Z,59.90
2019-04-25T01:20:04.177Z,59.80
2019-04-25T01:22:34.575Z,59.90
2019-04-25T01:25:10.429Z,59.80
2019-04-25T01:27:40.718Z,60.00
2019-04-25T01:30:11.976Z,60.30
2019-04-25T01:32:44.635Z,60.40
2019-04-25T01:35:31.297Z,60.50
2019-04-25T01:38:18.365Z,60.80
2019-04-25T01:40:51.002Z,60.80
2019-04-25T01:43:25.911Z,61.30
2019-04-25T01:45:57.936Z,61.70
2019-04-25T01:48:28.218Z,62.20
2019-04-25T01:50:58.571Z,62.80
2019-04-25T01:53:28.776Z,63.40
2019-04-25T01:56:04.087Z,63.70
2019-04-25T01:58:30.947Z,64.20
2019-04-25T02:01:01.305Z,64.70
2019-04-25T02:03:31.670Z,65.40
2019-04-25T02:06:01.862Z,65.40
2019-04-25T02:08:33.862Z,65.50
2019-04-25T02:11:06.085Z,65.90
2019-04-25T02:13:36.858Z,66.10
2019-04-25T02:16:08.869Z,66.40
2019-04-25T02:18:39.233Z,66.60
2019-04-25T02:21:09.773Z,66.40
2019-04-25T02:23:40.996Z,67.00
2019-04-25T02:26:15.941Z,67.30
2019-04-25T02:28:43.741Z,67.70
2019-04-25T02:31:17.540Z,67.70
2019-04-25T02:33:46.204Z,67.90
2019-04-25T02:36:16.485Z,68.10
2019-04-25T02:38:46.689Z,68.20
2019-04-25T02:41:16.983Z,68.50
2019-04-25T02:43:47.188Z,69.00
2019-04-25T02:46:37.276Z,69.20
2019-04-25T02:49:35.340Z,69.60
2019-04-25T02:52:13.144Z,70.00
2019-04-25T02:54:41.538Z,70.10
2019-04-25T02:57:11.753Z,70.40
2019-04-25T02:59:42.068Z,70.40
2019-04-25T03:02:12.259Z,70.60
2019-04-25T03:04:44.500Z,71.00
2019-04-25T03:07:17.493Z,70.80
2019-04-25T03:09:46.598Z,70.50
2019-04-25T03:12:29.113Z,70.40
2019-04-25T03:14:48.813Z,70.40
2019-04-25T03:17:19.037Z,70.30
2019-04-25T03:20:11.151Z,70.20
2019-04-25T03:22:39.470Z,70.00
2019-04-25T03:25:13.092Z,69.90
2019-04-25T03:27:41.785Z,70.10
2019-04-25T03:30:17.220Z,70.50
2019-04-25T03:32:45.423Z,70.40
2019-04-25T03:35:15.835Z,70.60
2019-04-25T03:37:46.035Z,70.90
2019-04-25T03:40:16.324Z,71.00
2019-04-25T03:42:46.697Z,71.20
2019-04-25T03:45:16.936Z,71.20
2019-04-25T03:47:47.146Z,71.60
2019-04-25T03:50:17.391Z,73.20
2019-04-25T03:52:47.775Z,73.70
2019-04-25T03:55:17.980Z,74.30
2019-04-25T03:57:48.178Z,75.50
2019-04-25T04:00:18.690Z,75.60
2019-04-25T04:02:48.980Z,76.00
2019-04-25T04:05:19.282Z,76.30
2019-04-25T04:07:49.471Z,76.50
2019-04-25T04:10:21.206Z,76.50
2019-04-25T04:12:51.546Z,76.80
2019-04-25T04:15:23.172Z,76.80
2019-04-25T04:17:55.710Z,77.80
2019-04-25T04:20:27.577Z,77.40
2019-04-25T04:22:59.438Z,77.70
2019-04-25T04:25:29.941Z,77.60
2019-04-25T04:28:00.160Z,77.30
2019-04-25T04:30:30.383Z,77.40
2019-04-25T04:33:00.610Z,77.30
2019-04-25T04:35:31.106Z,77.20
2019-04-25T04:38:01.297Z,77.50
2019-04-25T04:40:31.539Z,77.30
2019-04-25T04:43:01.813Z,77.80
2019-04-25T04:45:32.055Z,77.80
2019-04-25T04:48:03.253Z,78.00
2019-04-25T04:50:33.785Z,78.20
2019-04-25T04:53:04.043Z,78.60
2019-04-25T04:55:35.040Z,78.50
2019-04-25T04:58:05.410Z,78.60
2019-04-25T05:00:35.831Z,78.50
2019-04-25T05:03:14.881Z,78.20
2019-04-25T05:06:03.657Z,77.70
2019-04-25T05:08:35.563Z,77.50
2019-04-25T05:11:05.979Z,77.40
2019-04-25T05:13:36.164Z,77.40
2019-04-25T05:16:06.396Z,77.50
2019-04-25T05:18:39.877Z,77.20
2019-04-25T05:21:08.590Z,77.40
2019-04-25T05:23:38.775Z,77.50
2019-04-25T05:26:09.005Z,77.60
2019-04-25T05:28:39.214Z,77.40
2019-04-25T05:31:18.132Z,77.50
2019-04-25T05:33:48.453Z,77.80
2019-04-25T05:36:19.585Z,78.10
2019-04-25T05:38:49.877Z,78.60
2019-04-25T05:41:27.463Z,78.50
2019-04-25T05:43:57.680Z,77.50
2019-04-25T05:46:27.940Z,77.00
2019-04-25T05:48:58.151Z,77.50
2019-04-25T05:51:30.030Z,77.60
2019-04-25T05:54:00.248Z,77.40
2019-04-25T05:56:30.497Z,77.80
2019-04-25T05:59:00.704Z,77.30
2019-04-25T06:01:31.006Z,77.30
2019-04-25T06:04:01.233Z,77.10
2019-04-25T06:06:31.462Z,76.80
2019-04-25T06:09:28.101Z,76.50
2019-04-25T06:12:24.752Z,75.20
2019-04-25T06:14:55.142Z,74.50
2019-04-25T06:17:34.302Z,74.30
2019-04-25T06:20:08.802Z,75.00
2019-04-25T06:22:49.519Z,74.50
2019-04-25T06:25:24.161Z,74.60
2019-04-25T06:27:57.298Z,74.70
2019-04-25T06:30:29.596Z,74.50
2019-04-25T06:33:00.248Z,74.10
2019-04-25T06:35:30.481Z,74.20
2019-04-25T06:38:00.701Z,74.10
2019-04-25T06:40:30.996Z,74.00
2019-04-25T06:43:01.194Z,73.90
2019-04-25T06:45:51.561Z,73.60
2019-04-25T06:48:29.120Z,73.80
2019-04-25T06:50:59.343Z,74.10
2019-04-25T06:53:30.526Z,74.00
2019-04-25T06:56:00.868Z,74.20
2019-04-25T06:58:31.103Z,74.20
2019-04-25T07:01:01.364Z,74.00
2019-04-25T07:03:31.600Z,73.70
2019-04-25T07:06:03.294Z,73.30
2019-04-25T07:08:35.195Z,73.20
2019-04-25T07:11:05.867Z,73.10
2019-04-25T07:13:38.736Z,72.90
2019-04-25T07:16:08.089Z,73.10
2019-04-25T07:18:38.352Z,72.50
2019-04-25T07:21:08.627Z,72.20
2019-04-25T07:23:38.840Z,71.90
2019-04-25T07:26:10.859Z,71.50
2019-04-25T07:28:51.848Z,71.00
2019-04-25T07:31:35.849Z,70.10
2019-04-25T07:34:10.764Z,69.50
2019-04-25T07:36:41.135Z,68.60
2019-04-25T07:39:13.352Z,67.90
2019-04-25T07:41:44.144Z,67.60
2019-04-25T07:44:14.791Z,67.40
2019-04-25T07:46:45.097Z,66.80
2019-04-25T07:49:15.346Z,65.30
2019-04-25T07:51:45.561Z,63.70
2019-04-25T07:54:15.846Z,62.20
2019-04-25T07:56:46.146Z,61.10
2019-04-25T07:59:16.497Z,60.50
2019-04-25T08:01:46.942Z,59.00
2019-04-25T08:04:17.226Z,57.90
2019-04-25T08:06:47.480Z,57.10
2019-04-25T08:09:17.720Z,56.50
2019-04-25T08:11:47.996Z,55.90
2019-04-25T08:14:35.977Z,55.60
2019-04-25T08:17:07.987Z,54.30
2019-04-25T08:19:39.340Z,53.30
2019-04-25T08:22:09.628Z,52.60
2019-04-25T08:24:43.999Z,52.20
2019-04-25T08:27:14.327Z,51.70
2019-04-25T08:29:45.481Z,51.40
2019-04-25T08:32:16.541Z,50.50
2019-04-25T08:34:46.821Z,49.80
2019-04-25T08:37:19.813Z,49.30
2019-04-25T08:39:48.997Z,48.20
2019-04-25T08:42:19.203Z,47.30
2019-04-25T08:44:49.457Z,46.40
2019-04-25T08:47:19.677Z,45.60
2019-04-25T08:49:51.563Z,44.80
2019-04-25T08:52:21.753Z,44.60
2019-04-25T08:55:02.093Z,43.80
2019-04-25T08:57:50.155Z,43.20
2019-04-25T09:00:33.047Z,43.10
2019-04-25T09:03:08.367Z,42.00
2019-04-25T09:05:45.968Z,40.60
2019-04-25T09:08:14.609Z,40.20
2019-04-25T09:10:45.064Z,39.80
2019-04-25T09:13:15.286Z,39.50
2019-04-25T09:15:45.830Z,39.00
2019-04-25T09:18:16.120Z,39.30
2019-04-25T09:20:46.793Z,37.90
2019-04-25T09:23:17.114Z,37.40
2019-04-25T09:25:47.400Z,37.40
2019-04-25T09:28:17.671Z,37.10
2019-04-25T09:30:47.923Z,37.00
2019-04-25T09:33:18.205Z,36.30
2019-04-25T09:35:48.430Z,36.50
2019-04-25T09:38:18.811Z,36.70
2019-04-25T09:40:49.052Z,36.70
2019-04-25T09:43:19.417Z,36.70
2019-04-25T09:45:54.151Z,36.60
2019-04-25T09:48:36.240Z,36.50
2019-04-25T09:51:23.610Z,36.10
2019-04-25T09:53:55.533Z,36.30
2019-04-25T09:56:27.460Z,37.10
2019-04-25T09:58:59.300Z,36.80
2019-04-25T10:01:30.059Z,36.80
2019-04-25T10:04:00.287Z,36.50
2019-04-25T10:06:33.312Z,36.40
2019-04-25T10:09:05.602Z,36.70
2019-04-25T10:11:38.188Z,36.80
2019-04-25T10:14:16.253Z,37.30
2019-04-25T10:16:47.291Z,36.50
2019-04-25T10:19:17.745Z,36.30
2019-04-25T10:21:48.492Z,36.50
2019-04-25T10:24:18.701Z,36.40
2019-04-25T10:26:48.999Z,36.40
2019-04-25T10:29:19.244Z,36.50
2019-04-25T10:31:49.548Z,36.30
2019-04-25T10:34:24.361Z,36.70
2019-04-25T10:36:54.595Z,37.00
2019-04-25T10:39:25.329Z,37.20
2019-04-25T10:41:55.928Z,37.00
2019-04-25T10:44:26.221Z,37.10
2019-04-25T10:46:56.683Z,36.60
2019-04-25T10:49:26.906Z,36.50
2019-04-25T10:51:57.174Z,36.10
2019-04-25T10:54:27.457Z,36.30
2019-04-25T10:56:57.716Z,36.40
2019-04-25T10:59:27.936Z,36.10
2019-04-25T11:01:58.224Z,35.90
2019-04-25T11:04:30.094Z,36.10
2019-04-25T11:07:00.453Z,36.00
2019-04-25T11:09:31.295Z,35.90
2019-04-25T11:12:01.926Z,35.60
2019-04-25T11:14:34.254Z,35.50
2019-04-25T11:17:04.695Z,35.70
2019-04-25T11:19:37.238Z,35.80
2019-04-25T11:22:07.764Z,35.40
2019-04-25T11:24:38.158Z,35.20
2019-04-25T11:27:08.425Z,35.40
2019-04-25T11:29:38.668Z,35.50
2019-04-25T11:32:13.235Z,35.90
2019-04-25T11:34:46.107Z,35.70
2019-04-25T11:37:15.818Z,35.70
2019-04-25T11:39:47.740Z,35.70
2019-04-25T11:42:18.161Z,35.20
2019-04-25T11:44:49.673Z,35.10
2019-04-25T11:47:20.350Z,34.90
2019-04-25T11:49:51.941Z,35.20
2019-04-25T11:52:28.358Z,35.10
2019-04-25T11:54:55.703Z,34.90
2019-04-25T11:57:26.199Z,34.30
2019-04-25T11:59:56.482Z,34.20
2019-04-25T12:02:27.364Z,34.30
2019-04-25T12:04:57.652Z,34.00
2019-04-25T12:07:28.052Z,33.90
2019-04-25T12:09:58.258Z,33.80
2019-04-25T12:12:28.507Z,33.80
2019-04-25T12:14:58.732Z,33.50
2019-04-25T12:17:29.041Z,32.90
2019-04-25T12:19:59.274Z,31.90
2019-04-25T12:22:29.545Z,31.40
2019-04-25T12:24:59.820Z,30.90
2019-04-25T12:27:30.058Z,30.90
2019-04-25T12:30:00.250Z,31.10
2019-04-25T12:32:30.484Z,31.50
2019-04-25T12:35:00.675Z,31.40
2019-04-25T12:37:30.919Z,30.90
2019-04-25T12:40:02.450Z,30.60
2019-04-25T12:42:34.374Z,30.10
2019-04-25T12:45:19.755Z,30.00
2019-04-25T12:47:51.598Z,30.20
2019-04-25T12:50:23.084Z,30.00
2019-04-25T12:52:55.041Z,30.00
2019-04-25T12:55:25.861Z,30.40
2019-04-25T12:57:56.554Z,29.80
2019-04-25T13:00:27.979Z,29.70
2019-04-25T13:02:58.760Z,29.50
2019-04-25T13:05:29.093Z,30.00
2019-04-25T13:08:00.154Z,30.20
2019-04-25T13:10:31.234Z,30.40
2019-04-25T13:13:01.506Z,29.40
2019-04-25T13:15:33.433Z,29.60
2019-04-25T13:18:03.668Z,30.10
2019-04-25T13:20:34.151Z,30.50
2019-04-25T13:23:05.865Z,30.30
2019-04-25T13:25:36.599Z,30.60
2019-04-25T13:28:11.459Z,30.80
2019-04-25T13:31:01.539Z,31.40
2019-04-25T13:33:25.762Z,31.70
2019-04-25T13:36:00.317Z,31.50
2019-04-25T13:38:30.517Z,31.40
2019-04-25T13:41:01.602Z,30.70
2019-04-25T13:43:31.963Z,30.00
2019-04-25T13:46:02.599Z,30.00
2019-04-25T13:48:34.370Z,29.70
2019-04-25T13:51:04.894Z,29.80
2019-04-25T13:53:35.107Z,29.70
2019-04-25T13:56:05.657Z,29.70
2019-04-25T13:58:35.876Z,29.60
2019-04-25T14:01:13.083Z,29.70
2019-04-25T14:03:39.363Z,29.90
2019-04-25T14:06:10.983Z,30.00
2019-04-25T14:08:43.411Z,29.80
2019-04-25T14:11:14.080Z,29.60
2019-04-25T14:13:44.411Z,29.50
2019-04-25T14:16:16.323Z,30.00
2019-04-25T14:18:48.201Z,30.30
2019-04-25T14:21:19.669Z,30.50
2019-04-25T14:23:49.887Z,30.30
2019-04-25T14:26:20.617Z,30.00
2019-04-25T14:28:51.808Z,29.80
2019-04-25T14:31:33.804Z,30.60
2019-04-25T14:33:55.427Z,31.00
2019-04-25T14:36:27.136Z,30.60
2019-04-25T14:38:57.598Z,30.60
2019-04-25T14:41:28.093Z,30.70
2019-04-25T14:43:58.396Z,30.60
2019-04-25T14:46:28.740Z,30.50
2019-04-25T14:48:58.973Z,30.30
2019-04-25T14:51:29.179Z,30.10
2019-04-25T14:54:01.309Z,30.30
2019-04-25T14:56:42.019Z,30.50
2019-04-25T14:59:14.002Z,29.60
2019-04-25T15:01:45.424Z,29.50
2019-04-25T15:04:15.696Z,29.40
2019-04-25T15:06:45.917Z,29.00
2019-04-25T15:09:16.243Z,27.90
2019-04-25T15:11:46.535Z,27.50
2019-04-25T15:14:16.800Z,27.60
2019-04-25T15:16:46.997Z,27.20
2019-04-25T15:19:17.269Z,27.70
2019-04-25T15:21:47.491Z,26.80
2019-04-25T15:24:17.783Z,23.70
2019-04-25T15:26:48.005Z,20.90
2019-04-25T15:29:18.215Z,18.80
2019-04-25T15:31:56.146Z,17.80
2019-04-25T15:34:28.231Z,17.30
2019-04-25T15:37:02.797Z,15.50
2019-04-25T15:39:40.407Z,14.60
2019-04-25T15:42:21.459Z,14.00
2019-04-25T15:45:08.539Z,13.70
2019-04-25T15:47:38.827Z,13.30
2019-04-25T15:50:09.474Z,12.90
2019-04-25T15:52:39.682Z,12.80
2019-04-25T15:55:10.120Z,13.30
2019-04-25T15:57:40.815Z,14.10
2019-04-25T16:00:13.022Z,15.00
2019-04-25T16:02:43.744Z,15.80
2019-04-25T16:05:14.226Z,16.70
2019-04-25T16:07:44.495Z,17.20
2019-04-25T16:10:15.040Z,17.30
2019-04-25T16:12:45.444Z,18.10
2019-04-25T16:15:15.834Z,19.30
2019-04-25T16:17:46.075Z,20.50
2019-04-25T16:20:16.286Z,21.90
2019-04-25T16:22:46.574Z,23.10
2019-04-25T16:25:17.180Z,24.30
2019-04-25T16:27:47.402Z,25.20
2019-04-25T16:30:20.345Z,25.90
2019-04-25T16:32:50.558Z,26.60
2019-04-25T16:35:20.838Z,27.30
2019-04-25T16:37:51.132Z,28.00
2019-04-25T16:40:21.533Z,28.20
2019-04-25T16:42:51.931Z,28.50
2019-04-25T16:45:22.282Z,28.70
2019-04-25T16:47:52.570Z,28.90
2019-04-25T16:50:22.821Z,29.40
2019-04-25T16:52:53.107Z,29.50
2019-04-25T16:55:23.602Z,29.20
2019-04-25T16:57:53.910Z,28.80
2019-04-25T17:00:25.965Z,28.40
2019-04-25T17:02:56.176Z,28.40
2019-04-25T17:05:27.262Z,28.80
2019-04-25T17:07:57.497Z,29.30
2019-04-25T17:10:27.970Z,29.40
2019-04-25T17:12:58.173Z,29.70
2019-04-25T17:15:46.339Z,29.70
2019-04-25T17:18:21.000Z,29.80
2019-04-25T17:20:55.734Z,30.40
2019-04-25T17:23:26.103Z,31.10
2019-04-25T17:25:56.314Z,31.70
2019-04-25T17:28:28.164Z,32.20
2019-04-25T17:31:16.305Z,32.90
2019-04-25T17:33:56.999Z,33.50
2019-04-25T17:36:28.899Z,34.20
2019-04-25T17:39:18.980Z,34.70
2019-04-25T17:41:49.220Z,35.10
2019-04-25T17:44:19.457Z,35.10
2019-04-25T17:46:49.674Z,34.50
2019-04-25T17:49:19.910Z,34.20
2019-04-25T17:51:50.517Z,34.00
2019-04-25T17:54:20.825Z,33.80
2019-04-25T17:56:51.109Z,33.60
2019-04-25T17:59:21.332Z,33.30
2019-04-25T18:01:52.334Z,33.60
2019-04-25T18:04:22.846Z,33.60
2019-04-25T18:06:53.062Z,33.50
2019-04-25T18:09:23.283Z,33.50
2019-04-25T18:11:55.515Z,33.40
2019-04-25T18:14:25.747Z,33.70
2019-04-25T18:16:56.039Z,33.90
2019-04-25T18:19:30.851Z,34.30
2019-04-25T18:22:03.359Z,34.60
2019-04-25T18:24:54.088Z,34.60
2019-04-25T18:27:25.215Z,34.80
2019-04-25T18:29:55.491Z,34.80
2019-04-25T18:32:27.365Z,34.40
2019-04-25T18:35:05.466Z,34.50
2019-04-25T18:37:37.380Z,35.50
2019-04-25T18:40:09.937Z,36.20
2019-04-25T18:42:44.276Z,37.00
2019-04-25T18:45:25.065Z,38.00
2019-04-25T18:47:55.280Z,38.50
2019-04-25T18:50:27.189Z,38.50
2019-04-25T18:53:08.411Z,38.70
2019-04-25T18:55:43.059Z,39.30
2019-04-25T18:58:26.871Z,40.00
2019-04-25T19:01:16.498Z,40.00
2019-04-25T19:03:57.274Z,40.10
2019-04-25T19:06:28.445Z,40.20
2019-04-25T19:08:58.690Z,40.00
2019-04-25T19:11:28.917Z,38.80
2019-04-25T19:13:59.160Z,35.70
2019-04-25T19:16:29.454Z,34.40
2019-04-25T19:18:59.661Z,34.00
2019-04-25T19:21:29.889Z,34.20
2019-04-25T19:24:00.100Z,33.90
2019-04-25T19:26:30.329Z,33.70
2019-04-25T19:29:00.543Z,34.00
2019-04-25T19:31:30.857Z,34.60
2019-04-25T19:34:01.119Z,34.60
2019-04-25T19:36:31.486Z,34.70
2019-04-25T19:39:01.798Z,35.30
2019-04-25T19:41:33.659Z,36.10
2019-04-25T19:44:14.295Z,36.30
2019-04-25T19:46:47.099Z,36.60
2019-04-25T19:49:17.451Z,36.80
2019-04-25T19:51:47.697Z,37.20
2019-04-25T19:54:17.996Z,37.00
2019-04-25T19:56:48.211Z,37.40
2019-04-25T19:59:18.441Z,37.80
2019-04-25T20:01:50.662Z,38.30
2019-04-25T20:04:22.492Z,38.70
2019-04-25T20:07:10.379Z,38.80
2019-04-25T20:09:54.491Z,38.90
2019-04-25T20:12:29.786Z,38.90
2019-04-25T20:15:00.545Z,39.50
2019-04-25T20:17:30.802Z,39.30
2019-04-25T20:20:01.082Z,39.00
2019-04-25T20:22:31.330Z,39.70
2019-04-25T20:25:01.554Z,39.50
2019-04-25T20:27:31.770Z,39.80
2019-04-25T20:30:02.193Z,40.50
2019-04-25T20:32:32.472Z,39.80
2019-04-25T20:35:02.671Z,40.00
2019-04-25T20:37:32.879Z,40.00
2019-04-25T20:40:03.164Z,40.40
2019-04-25T20:42:33.437Z,40.60
2019-04-25T20:45:04.700Z,40.50
2019-04-25T20:47:34.992Z,40.60
2019-04-25T20:50:06.629Z,41.00
2019-04-25T20:52:38.232Z,41.20
2019-04-25T20:55:08.854Z,41.40
2019-04-25T20:57:39.086Z,41.70
2019-04-25T21:00:10.412Z,41.70
2019-04-25T21:02:40.702Z,41.70
2019-04-25T21:05:10.942Z,41.60
2019-04-25T21:07:42.190Z,41.50
2019-04-25T21:10:12.408Z,41.60
2019-04-25T21:12:42.636Z,41.70
2019-04-25T21:15:14.951Z,41.70
2019-04-25T21:17:56.309Z,41.50
2019-04-25T21:20:26.638Z,41.70
2019-04-25T21:22:57.733Z,41.30
2019-04-25T21:25:28.136Z,41.20
2019-04-25T21:27:58.630Z,41.20
2019-04-25T21:30:28.830Z,41.20
2019-04-25T21:32:59.544Z,41.30
2019-04-25T21:35:30.014Z,41.00
2019-04-25T21:38:00.244Z,41.00
2019-04-25T21:40:34.774Z,41.00
2019-04-25T21:43:12.864Z,41.10
2019-04-25T21:45:43.378Z,41.00
2019-04-25T21:48:13.974Z,41.10
2019-04-25T21:50:44.447Z,40.90
2019-04-25T21:53:14.679Z,41.10
2019-04-25T21:55:45.158Z,40.90
2019-04-25T21:58:15.746Z,40.90
2019-04-25T22:00:47.973Z,41.20
2019-04-25T22:03:20.215Z,41.50
2019-04-25T22:05:50.612Z,41.90
2019-04-25T22:08:20.918Z,41.70
2019-04-25T22:10:51.133Z,41.50
2019-04-25T22:13:21.365Z,39.30
2019-04-25T22:15:51.886Z,37.90
2019-04-25T22:18:22.486Z,39.20
2019-04-25T22:20:52.703Z,44.60
2019-04-25T22:23:22.961Z,47.50
2019-04-25T22:25:53.523Z,48.80
2019-04-25T22:28:24.089Z,50.00
2019-04-25T22:30:57.717Z,50.50
2019-04-25T22:33:29.649Z,51.10
2019-04-25T22:36:02.131Z,51.80
2019-04-25T22:38:32.480Z,52.20
2019-04-25T22:41:03.566Z,52.60
2019-04-25T22:43:36.104Z,52.80
2019-04-25T22:46:06.736Z,53.40
2019-04-25T22:48:49.427Z,53.60
2019-04-25T22:51:19.945Z,54.00
2019-04-25T22:53:50.629Z,54.30
2019-04-25T22:56:20.835Z,54.80
2019-04-25T22:58:51.084Z,54.90
2019-04-25T23:01:23.339Z,55.10
2019-04-25T23:03:57.901Z,55.50
2019-04-25T23:06:28.384Z,55.60
2019-04-25T23:08:58.593Z,55.80
2019-04-25T23:11:28.793Z,56.00
2019-04-25T23:13:59.184Z,56.20
2019-04-25T23:16:29.795Z,56.30
2019-04-25T23:18:59.989Z,56.40
2019-04-25T23:21:30.210Z,56.50
2019-04-25T23:24:00.949Z,56.50
2019-04-25T23:26:32.790Z,56.70
2019-04-25T23:29:04.782Z,56.80
2019-04-25T23:31:36.848Z,56.90
2019-04-25T23:34:07.320Z,57.10
2019-04-25T23:36:37.545Z,56.70
2019-04-25T23:39:09.402Z,56.10
2019-04-25T23:41:40.053Z,55.70
2019-04-25T23:44:10.332Z,55.70
2019-04-25T23:46:42.060Z,55.90
2019-04-25T23:49:12.757Z,56.00
2019-04-25T23:51:43.188Z,56.00
2019-04-25T23:54:13.418Z,55.90
2019-04-25T23:56:43.712Z,56.40
2019-04-25T23:59:14.273Z,55.80
